Time;durP1;ratioP1;P1;durP2;ratioP2;P2;SDS_P1;SDS_P2;PMS_P1;PMS_P2;Temp;Humidity;BMP_temperature;BMP_pressure;BME280_temperature;BME280_humidity;BME280_pressure;Samples;Min_cycle;Max_cycle;Signal;HPM_P1;HPM_P2
2022/10/18 00:00:43;;;;;;;18.58;8.00;;;;;;;13.89;55.94;101209.91;7712090;32;39934;-85
2022/10/18 00:05:00;;;;;;;14.73;7.82;;;;;;;13.86;56.10;101197.53;7712075;32;37936;-85
2022/10/18 00:09:16;;;;;;;17.05;8.15;;;;;;;14.00;55.72;101203.44;7712230;32;37901;-85
2022/10/18 00:13:32;;;;;;;17.98;8.70;;;;;;;13.45;57.52;101201.78;7712298;32;39464;-85
2022/10/18 00:17:48;;;;;;;15.75;8.02;;;;;;;13.48;57.61;101202.09;7711690;32;39850;-85
2022/10/18 00:22:04;;;;;;;15.45;7.82;;;;;;;13.53;57.25;101204.88;7712155;32;38797;-85
2022/10/18 00:26:24;;;;;;;20.65;7.95;;;;;;;13.44;57.44;101194.66;7711731;32;38209;-85
2022/10/18 00:30:40;;;;;;;13.98;8.23;;;;;;;13.35;57.74;101191.53;7712097;32;39993;-85
2022/10/18 00:34:57;;;;;;;20.37;7.97;;;;;;;13.38;57.75;101190.19;7711364;32;40769;-85
2022/10/18 00:39:18;;;;;;;15.27;8.48;;;;;;;13.50;57.40;101188.12;7711772;32;38639;-85
2022/10/18 00:43:56;;;;;;;15.15;7.97;;;;;;;13.44;57.50;101184.50;7711027;32;37157;-86
2022/10/18 00:48:13;;;;;;;15.65;8.70;;;;;;;13.44;57.80;101181.78;7685321;32;39254;-86
2022/10/18 00:52:36;;;;;;;16.02;8.23;;;;;;;13.29;58.30;101178.84;7671693;32;39758;-85
2022/10/18 00:56:52;;;;;;;14.65;8.52;;;;;;;13.20;58.75;101172.97;7703611;32;37939;-85
2022/10/18 01:01:08;;;;;;;16.08;8.25;;;;;;;13.26;58.52;101177.44;7711802;32;37116;-86
2022/10/18 01:05:25;;;;;;;15.20;8.05;;;;;;;13.31;58.16;101168.44;7711344;32;39359;-86
2022/10/18 01:10:00;;;;;;;18.08;8.00;;;;;;;12.98;59.48;101166.69;7711034;32;40986;-86
2022/10/18 01:14:41;;;;;;;15.40;8.10;;;;;;;13.12;59.07;101165.22;7710976;32;37938;-84
2022/10/18 01:19:29;;;;;;;14.38;7.80;;;;;;;13.04;58.94;101162.91;7711134;32;37175;-86
2022/10/18 01:24:14;;;;;;;19.52;9.02;;;;;;;13.05;58.88;101161.84;7700119;32;39954;-86
2022/10/18 01:29:01;;;;;;;15.25;8.50;;;;;;;12.91;59.73;101155.91;7684848;32;39966;-85
2022/10/18 01:33:40;;;;;;;16.08;8.13;;;;;;;13.02;59.01;101149.50;7674392;32;37797;-85
2022/10/18 01:37:59;;;;;;;15.60;8.18;;;;;;;12.65;60.13;101150.09;7711065;32;37854;-85
2022/10/18 01:42:18;;;;;;;18.75;8.25;;;;;;;12.92;59.43;101144.72;7711436;32;39385;-85
2022/10/18 01:46:35;;;;;;;12.57;7.32;;;;;;;13.06;59.03;101141.59;7697534;32;40508;-85
2022/10/18 01:50:52;;;;;;;18.10;8.10;;;;;;;12.87;59.54;101135.63;7698036;32;37682;-85
2022/10/18 01:55:09;;;;;;;15.90;7.43;;;;;;;13.09;58.85;101136.44;7710256;32;38543;-85
2022/10/18 01:59:49;;;;;;;13.98;7.45;;;;;;;13.17;58.13;101131.59;7711112;32;39296;-85
2022/10/18 02:04:21;;;;;;;14.43;8.02;;;;;;;12.90;59.17;101122.25;7697423;32;39848;-86
2022/10/18 02:08:59;;;;;;;16.00;7.45;;;;;;;12.67;59.78;101115.09;7698411;32;37877;-87
2022/10/18 02:13:18;;;;;;;15.23;7.50;;;;;;;12.94;59.10;101115.19;7710373;32;36936;-87
2022/10/18 02:17:34;;;;;;;14.85;7.35;;;;;;;12.70;59.69;101117.34;7697462;32;39440;-87
2022/10/18 02:21:52;;;;;;;17.25;8.50;;;;;;;12.54;59.70;101104.56;7710342;32;39965;-86
2022/10/18 02:26:08;;;;;;;15.70;8.40;;;;;;;12.60;59.22;101111.72;7696958;32;38706;-86
2022/10/18 02:30:29;;;;;;;16.37;8.35;;;;;;;12.42;60.38;101117.47;7696778;32;37156;-86
2022/10/18 02:35:35;;;;;;;13.02;7.25;;;;;;;12.62;59.82;101114.22;7709928;32;39054;-86
2022/10/18 02:39:51;;;;;;;14.30;8.55;;;;;;;12.95;58.67;101118.72;7697434;32;39672;-84
2022/10/18 02:44:08;;;;;;;13.10;7.97;;;;;;;12.56;59.49;101121.53;7709807;32;37823;-86
2022/10/18 02:48:24;;;;;;;15.88;8.93;;;;;;;12.50;59.96;101117.06;7709397;32;37063;-86
2022/10/18 02:52:40;;;;;;;16.23;8.32;;;;;;;12.26;61.25;101128.19;7699708;32;40075;-84
2022/10/18 02:56:56;;;;;;;16.65;9.25;;;;;;;12.47;60.17;101123.03;7709689;32;39824;-87
2022/10/18 03:01:12;;;;;;;16.92;9.13;;;;;;;12.05;62.07;101128.97;7703180;32;38145;-87
2022/10/18 03:05:28;;;;;;;18.55;9.13;;;;;;;12.23;61.35;101131.44;7704146;32;36989;-87
2022/10/18 03:09:44;;;;;;;15.07;7.55;;;;;;;12.30;61.13;101134.84;7712844;32;39470;-87
2022/10/18 03:14:00;;;;;;;14.73;7.82;;;;;;;12.42;60.27;101142.09;7694458;32;39969;-86
2022/10/18 03:18:16;;;;;;;16.65;8.38;;;;;;;12.26;60.33;101132.84;7686226;32;38015;-85
2022/10/18 03:22:32;;;;;;;13.57;8.43;;;;;;;12.33;60.29;101131.59;7686262;32;37447;-86
2022/10/18 03:26:48;;;;;;;14.38;7.53;;;;;;;12.54;59.39;101131.91;7686359;32;40258;-85
2022/10/18 03:31:04;;;;;;;16.25;8.23;;;;;;;12.49;59.54;101121.72;7686229;32;40873;-85
2022/10/18 03:35:21;;;;;;;13.25;7.70;;;;;;;12.51;59.37;101130.47;7686071;32;38781;-85
2022/10/18 03:39:37;;;;;;;14.45;8.57;;;;;;;12.36;59.68;101133.81;7686231;32;37930;-86
2022/10/18 03:43:53;;;;;;;15.00;7.90;;;;;;;12.37;60.50;101134.66;7686134;32;39511;-86
2022/10/18 03:48:09;;;;;;;12.45;8.15;;;;;;;12.14;60.69;101135.66;7686122;32;40752;-86
2022/10/18 03:52:25;;;;;;;17.08;8.65;;;;;;;12.20;60.56;101140.97;7685972;32;38666;-86
2022/10/18 03:56:41;;;;;;;18.75;8.60;;;;;;;12.16;62.03;101128.06;7686092;32;37059;-86
2022/10/18 04:00:57;;;;;;;18.42;9.00;;;;;;;12.11;62.06;101134.28;7685867;32;39289;-85
2022/10/18 04:05:13;;;;;;;13.90;7.97;;;;;;;12.11;61.35;101138.94;7685836;32;40800;-85
2022/10/18 04:09:29;;;;;;;14.60;7.97;;;;;;;12.33;60.72;101130.75;7685559;32;37904;-85
2022/10/18 04:13:45;;;;;;;16.25;8.32;;;;;;;12.49;59.49;101129.09;7685740;32;37912;-85
2022/10/18 04:18:01;;;;;;;15.60;8.98;;;;;;;12.24;60.90;101124.06;7685686;32;40051;-85
2022/10/18 04:22:17;;;;;;;21.80;9.10;;;;;;;12.14;61.32;101130.19;7685731;32;40710;-85
2022/10/18 04:26:33;;;;;;;18.40;8.40;;;;;;;12.26;60.77;101120.00;7685589;32;37914;-86
2022/10/18 04:30:52;;;;;;;13.95;8.75;;;;;;;12.51;59.19;101113.25;7672170;32;37227;-85
2022/10/18 04:35:09;;;;;;;17.52;9.27;;;;;;;12.36;59.42;101119.31;7685533;32;39489;-85
2022/10/18 04:39:26;;;;;;;13.95;8.25;;;;;;;12.42;59.34;101112.00;7685624;32;39639;-85
2022/10/18 04:43:42;;;;;;;18.05;9.13;;;;;;;12.06;60.78;101106.03;7685256;32;38605;-85
2022/10/18 04:47:58;;;;;;;15.50;8.82;;;;;;;11.94;62.86;101101.47;7685362;32;37541;-86
2022/10/18 04:52:14;;;;;;;14.65;9.18;;;;;;;12.00;63.32;101107.84;7685359;32;40034;-86
2022/10/18 04:56:30;;;;;;;16.08;9.68;;;;;;;11.78;63.63;101103.09;7685344;32;40520;-86
2022/10/18 05:00:46;;;;;;;21.92;8.98;;;;;;;12.16;61.99;101111.66;7685310;32;37925;-86
2022/10/18 05:05:03;;;;;;;16.52;8.38;;;;;;;12.15;61.07;101107.25;7685280;32;37310;-86
2022/10/18 05:09:23;;;;;;;18.37;8.23;;;;;;;11.90;61.46;101110.38;7685167;32;39350;-86
2022/10/18 05:13:39;;;;;;;13.23;8.20;;;;;;;11.88;61.33;101099.69;7685128;32;40116;-85
2022/10/18 05:17:55;;;;;;;18.48;9.45;;;;;;;11.89;61.35;101093.16;7685116;32;37957;-86
2022/10/18 05:22:11;;;;;;;16.20;9.10;;;;;;;11.94;61.80;101101.47;7685041;32;37970;-85
2022/10/18 05:26:27;;;;;;;14.77;8.45;;;;;;;11.98;63.28;101105.34;7684982;32;39312;-86
2022/10/18 05:30:43;;;;;;;18.37;8.32;;;;;;;11.96;62.53;101098.50;7684317;32;39714;-86
2022/10/18 05:34:59;;;;;;;18.15;8.35;;;;;;;11.77;62.38;101092.44;7684789;32;37715;-85
2022/10/18 05:39:15;;;;;;;13.98;8.57;;;;;;;11.79;63.26;101096.56;7684951;32;36895;-85
2022/10/18 05:43:31;;;;;;;18.60;8.73;;;;;;;12.12;61.65;101099.56;7684901;32;39105;-85
2022/10/18 05:47:47;;;;;;;17.00;9.13;;;;;;;11.74;61.91;101106.56;7684737;32;39989;-85
2022/10/18 05:52:03;;;;;;;15.40;8.38;;;;;;;11.84;62.35;101104.00;7684597;32;39000;-86
2022/10/18 05:56:19;;;;;;;15.45;8.43;;;;;;;12.01;61.99;101104.87;7684702;32;37210;-85
2022/10/18 06:00:35;;;;;;;14.20;7.97;;;;;;;11.73;63.64;101115.84;7684653;32;39633;-85
2022/10/18 06:04:51;;;;;;;16.60;8.40;;;;;;;12.19;61.55;101112.00;7684221;32;39575;-85
2022/10/18 06:09:08;;;;;;;16.98;8.68;;;;;;;12.08;61.42;101107.44;7684188;32;37575;-86
2022/10/18 06:13:24;;;;;;;17.17;8.70;;;;;;;11.84;62.25;101113.03;7684287;32;38128;-85
2022/10/18 06:17:40;;;;;;;15.65;8.90;;;;;;;12.10;62.18;101120.84;7684413;32;39400;-83
2022/10/18 06:21:56;;;;;;;17.58;8.75;;;;;;;12.23;61.71;101123.25;7684276;32;40877;-84
2022/10/18 06:26:12;;;;;;;17.35;9.57;;;;;;;12.51;63.33;101118.72;7684117;32;38821;-84
2022/10/18 06:30:28;;;;;;;17.30;9.48;;;;;;;12.31;63.42;101125.53;7684177;32;37208;-87
2022/10/18 06:34:44;;;;;;;13.98;7.90;;;;;;;12.59;62.56;101119.13;7683936;32;39344;-88
2022/10/18 06:39:01;;;;;;;21.33;9.38;;;;;;;12.91;61.44;101123.06;7683706;32;40945;-72
2022/10/18 06:43:17;;;;;;;19.37;8.93;;;;;;;13.05;62.26;101118.84;7682804;32;37957;-72
2022/10/18 06:47:36;;;;;;;16.10;9.00;;;;;;;13.15;62.30;101116.22;7683803;32;37248;-77
2022/10/18 06:51:53;;;;;;;17.85;9.63;;;;;;;12.58;64.12;101124.84;7683606;32;40082;-78
2022/10/18 06:56:12;;;;;;;14.20;9.75;;;;;;;12.51;63.88;101116.81;7683423;32;40769;-78
2022/10/18 07:00:28;;;;;;;21.52;10.38;;;;;;;12.30;64.00;101112.97;7683390;32;37971;-78
2022/10/18 07:04:44;;;;;;;23.75;10.73;;;;;;;12.11;66.03;101125.25;7683325;32;37364;-77
2022/10/18 07:09:02;;;;;;;19.35;10.07;;;;;;;11.87;66.65;101119.91;7683141;32;40053;-77
2022/10/18 07:13:18;;;;;;;18.70;9.80;;;;;;;12.38;65.06;101120.75;7683065;32;40051;-78
2022/10/18 07:17:48;;;;;;;15.07;10.00;;;;;;;13.50;62.10;101116.91;7683024;32;37883;-78
2022/10/18 07:22:04;;;;;;;20.35;10.43;;;;;;;14.05;60.90;101115.72;7682895;32;37974;-79
2022/10/18 07:26:27;;;;;;;20.83;10.05;;;;;;;14.21;60.20;101108.47;7682762;32;40117;-77
2022/10/18 07:30:43;;;;;;;23.27;9.80;;;;;;;14.55;59.69;101110.84;7682655;32;40076;-78
2022/10/18 07:35:01;;;;;;;19.30;11.63;;;;;;;14.68;59.54;101101.34;7682418;32;38183;-77
2022/10/18 07:39:17;;;;;;;17.17;9.88;;;;;;;14.94;58.95;101096.78;7682573;32;37319;-78
2022/10/18 07:43:34;;;;;;;17.37;10.50;;;;;;;13.61;62.34;101112.38;7668867;32;40066;-76
2022/10/18 07:47:55;;;;;;;23.05;10.48;;;;;;;13.41;63.91;101116.53;7682323;32;40164;-79
2022/10/18 07:52:11;;;;;;;17.02;9.68;;;;;;;14.24;61.44;101107.91;7683555;32;37920;-78
2022/10/18 07:56:27;;;;;;;15.75;10.20;;;;;;;14.59;59.86;101100.19;7686096;32;38060;-78
2022/10/18 08:00:43;;;;;;;21.65;9.80;;;;;;;14.68;60.53;101095.00;7685915;32;39381;-78
2022/10/18 08:04:59;;;;;;;15.98;9.07;;;;;;;14.80;59.76;101081.91;7685812;32;41254;-79
2022/10/18 08:09:15;;;;;;;23.58;7.80;;;;;;;15.64;57.00;101074.37;7685700;32;38043;-78
2022/10/18 08:13:31;;;;;;;13.18;8.02;;;;;;;16.06;54.49;101069.72;7685844;32;38585;-77
2022/10/18 08:17:47;;;;;;;17.10;7.43;;;;;;;16.75;52.31;101046.13;7685828;32;39371;-77
2022/10/18 08:22:03;;;;;;;15.82;7.95;;;;;;;17.35;51.01;101050.75;7685816;32;40172;-78
2022/10/18 08:26:21;;;;;;;15.77;7.80;;;;;;;17.79;48.97;101049.84;7685663;32;39091;-78
2022/10/18 08:30:37;;;;;;;11.95;6.82;;;;;;;17.99;48.36;101043.34;7672371;32;37394;-76
2022/10/18 08:34:53;;;;;;;12.77;7.05;;;;;;;18.24;47.90;101033.97;7685418;32;39425;-84
2022/10/18 08:39:09;;;;;;;13.27;7.05;;;;;;;18.46;46.38;101029.87;7685230;32;40840;-84
2022/10/18 08:43:42;;;;;;;11.38;6.00;;;;;;;18.92;45.01;101026.50;7685132;32;37967;-84
2022/10/18 08:47:58;;;;;;;15.02;6.82;;;;;;;19.31;42.89;101017.09;7672846;32;37128;-85
2022/10/18 08:52:23;;;;;;;16.98;6.80;;;;;;;19.44;42.71;101015.53;7685075;32;39364;-83
2022/10/18 08:56:41;;;;;;;18.40;7.05;;;;;;;19.80;41.79;101010.22;7672116;32;40761;-84
2022/10/18 09:00:57;;;;;;;14.50;6.85;;;;;;;20.03;41.46;100994.56;7684931;32;38441;-81
2022/10/18 09:05:34;;;;;;;12.60;6.60;;;;;;;20.24;40.72;100992.19;7684188;32;37946;-82
2022/10/18 09:09:58;;;;;;;12.98;5.97;;;;;;;20.34;40.69;100999.50;7672761;32;39302;-81
2022/10/18 09:14:38;;;;;;;10.75;5.78;;;;;;;20.91;38.89;100982.50;7671486;32;39985;-83
2022/10/18 09:19:14;;;;;;;14.18;5.43;;;;;;;21.34;37.46;100981.19;7673235;32;38166;-81
2022/10/18 09:23:30;;;;;;;13.62;5.43;;;;;;;21.53;37.18;100978.25;7673230;32;37410;-82
2022/10/18 09:27:55;;;;;;;15.15;5.68;;;;;;;21.61;36.47;100969.16;7684657;32;39276;-82
2022/10/18 09:32:27;;;;;;;12.63;5.45;;;;;;;21.95;35.86;100964.91;7684664;32;40076;-82
2022/10/18 09:36:43;;;;;;;10.30;4.97;;;;;;;21.92;36.19;100973.88;7684570;32;38124;-81
2022/10/18 09:41:07;;;;;;;10.90;4.97;;;;;;;22.34;35.85;100962.47;7670912;32;36906;-82
2022/10/18 09:45:28;;;;;;;10.20;5.45;;;;;;;22.63;34.85;100959.09;7684492;32;39217;-82
2022/10/18 09:49:51;;;;;;;13.43;5.62;;;;;;;22.95;34.49;100943.88;7684394;32;39828;-82
2022/10/18 09:54:22;;;;;;;9.00;5.00;;;;;;;22.96;34.38;100934.41;7684284;32;37749;-82
2022/10/18 09:58:44;;;;;;;11.82;5.30;;;;;;;23.15;33.83;100920.19;7684338;32;37704;-81
2022/10/18 10:03:01;;;;;;;15.02;6.07;;;;;;;23.58;33.08;100919.25;7684310;32;40183;-82
2022/10/18 10:07:32;;;;;;;9.82;5.35;;;;;;;23.74;31.73;100918.72;7670405;32;39868;-80
2022/10/18 10:11:51;;;;;;;11.95;5.75;;;;;;;24.03;31.28;100917.16;7683950;32;37942;-81
2022/10/18 10:16:07;;;;;;;11.23;5.37;;;;;;;24.42;31.01;100915.09;7683849;32;38116;-82
2022/10/18 10:20:32;;;;;;;11.23;4.78;;;;;;;24.48;30.51;100922.09;7683284;32;39349;-81
2022/10/18 10:24:51;;;;;;;11.85;5.15;;;;;;;24.97;29.56;100908.44;7680545;32;39755;-80
2022/10/18 10:29:44;;;;;;;10.57;4.60;;;;;;;25.41;28.44;100894.87;7680769;32;37641;-80
2022/10/18 10:34:27;;;;;;;9.38;5.03;;;;;;;25.45;28.62;100887.44;7680730;32;38223;-80
2022/10/18 10:38:43;;;;;;;;;;;;;;;26.06;27.87;100885.88;7677019;32;39132;-80
2022/10/18 10:43:25;;;;;;;9.98;4.50;;;;;;;26.05;27.79;100878.66;7683718;32;40919;-79
2022/10/18 10:48:07;;;;;;;13.00;5.37;;;;;;;26.14;26.98;100870.97;7673621;32;38609;-80
2022/10/18 10:52:26;;;;;;;11.82;5.37;;;;;;;25.66;28.58;100878.16;7670465;32;37788;-80
2022/10/18 10:57:15;;;;;;;8.27;4.43;;;;;;;26.46;27.41;100859.94;7670180;32;39106;-81
2022/10/18 11:01:32;;;;;;;9.63;4.82;;;;;;;26.94;25.61;100863.75;7683379;32;40742;-80
2022/10/18 11:05:54;;;;;;;12.43;5.30;;;;;;;26.64;25.82;100848.50;7683312;32;38811;-81
2022/10/18 11:10:10;;;;;;;9.80;5.45;;;;;;;27.28;24.99;100844.69;7683125;32;37150;-81
2022/10/18 11:14:29;;;;;;;10.43;5.12;;;;;;;27.21;25.60;100836.06;7683009;32;40182;-80
2022/10/18 11:18:48;;;;;;;10.75;5.03;;;;;;;27.58;25.12;100813.44;7669732;32;39852;-80
2022/10/18 11:23:14;;;;;;;10.55;4.68;;;;;;;27.40;24.40;100810.19;7669807;32;37198;-81
2022/10/18 11:27:33;;;;;;;22.55;10.43;;;;;;;27.29;23.72;100804.31;7670864;32;37834;-81
2022/10/18 11:32:11;;;;;;;12.80;5.37;;;;;;;27.33;23.82;100802.41;7686858;32;39113;-82
2022/10/18 11:36:36;;;;;;;9.48;3.95;;;;;;;27.18;23.07;100792.00;7685681;32;40866;-81
2022/10/18 11:41:18;;;;;;;7.35;3.78;;;;;;;27.75;21.34;100781.41;7673890;32;38677;-82
2022/10/18 11:45:45;;;;;;;8.30;3.60;;;;;;;28.06;20.35;100788.12;7686057;32;37011;-82
2022/10/18 11:50:15;;;;;;;14.52;4.28;;;;;;;27.64;21.46;100775.56;7686023;32;39178;-83
2022/10/18 11:54:40;;;;;;;8.68;3.87;;;;;;;28.12;19.36;100769.06;7686052;32;40741;-83
2022/10/18 11:59:02;;;;;;;7.75;3.92;;;;;;;28.47;19.55;100764.16;7685864;32;38882;-82
2022/10/18 12:03:25;;;;;;;7.93;3.75;;;;;;;28.48;20.17;100748.16;7686021;32;37311;-82
2022/10/18 12:08:03;;;;;;;6.57;3.40;;;;;;;28.53;19.23;100756.28;7685878;32;39909;-84
2022/10/18 12:12:36;;;;;;;8.05;3.90;;;;;;;28.23;18.05;100750.44;7674744;32;39857;-83
2022/10/18 12:16:55;;;;;;;13.45;6.80;;;;;;;27.83;18.47;100746.78;7672598;32;38016;-81
2022/10/18 12:21:33;;;;;;;9.35;3.65;;;;;;;28.21;19.41;100730.41;7685134;32;37245;-83
2022/10/18 12:25:52;;;;;;;7.45;3.20;;;;;;;28.22;17.80;100723.62;7672208;32;39316;-82
2022/10/18 12:30:30;;;;;;;8.00;3.42;;;;;;;27.67;18.40;100721.63;7672443;32;40860;-82
2022/10/18 12:34:50;;;;;;;5.97;3.40;;;;;;;28.12;18.95;100708.19;7685647;32;37711;-82
2022/10/18 12:39:11;;;;;;;7.43;3.70;;;;;;;28.16;17.45;100711.87;7671983;32;37808;-83
2022/10/18 12:43:32;;;;;;;8.88;3.78;;;;;;;28.03;19.28;100704.81;7672545;32;39891;-83
2022/10/18 12:47:49;;;;;;;8.85;3.90;;;;;;;28.46;18.63;100700.06;7685497;32;40792;-82
2022/10/18 12:52:19;;;;;;;7.25;3.53;;;;;;;28.57;17.72;100695.47;7671944;32;37846;-82
2022/10/18 12:56:41;;;;;;;8.82;3.90;;;;;;;27.79;18.87;100691.88;7673250;32;36873;-82
2022/10/18 13:01:03;;;;;;;10.07;3.97;;;;;;;28.64;19.08;100689.19;7671577;32;40035;-77
2022/10/18 13:05:45;;;;;;;8.30;3.83;;;;;;;27.79;18.17;100683.47;7671910;32;40052;-77
2022/10/18 13:10:12;;;;;;;8.48;4.07;;;;;;;28.01;18.33;100679.97;7685035;32;38863;-78
2022/10/18 13:14:34;;;;;;;12.23;4.12;;;;;;;28.58;18.08;100671.03;7685073;32;37882;-78
2022/10/18 13:18:57;;;;;;;6.90;3.15;;;;;;;28.41;17.82;100664.72;7671951;32;39300;-77
2022/10/18 13:23:45;;;;;;;6.75;3.55;;;;;;;27.80;17.87;100662.66;7671748;32;39919;-77
2022/10/18 13:28:16;;;;;;;18.12;3.83;;;;;;;27.87;17.75;100668.41;7684853;32;38074;-76
2022/10/18 13:32:55;;;;;;;9.10;3.87;;;;;;;28.10;18.06;100655.31;7685086;32;37288;-76
2022/10/18 13:37:12;;;;;;;7.22;3.15;;;;;;;28.79;17.69;100663.00;7684871;32;40085;-77
2022/10/18 13:41:57;;;;;;;6.57;3.40;;;;;;;29.02;18.21;100656.53;7684792;32;39956;-76
2022/10/18 13:46:13;;;;;;;6.30;3.10;;;;;;;28.94;18.02;100652.00;7658928;32;38046;-78
2022/10/18 13:50:37;;;;;;;12.00;3.15;;;;;;;28.20;18.17;100653.06;7684235;32;37824;-79
2022/10/18 13:55:30;;;;;;;7.82;3.15;;;;;;;29.12;17.69;100653.09;7689541;32;39276;-79
2022/10/18 14:00:23;;;;;;;6.60;3.10;;;;;;;28.38;17.44;100648.62;7710594;32;38565;-79
2022/10/18 14:05:04;;;;;;;9.00;3.40;;;;;;;28.24;17.89;100637.16;7703604;32;38529;-80
2022/10/18 14:09:51;;;;;;;8.02;3.72;;;;;;;28.52;18.08;100636.84;7684547;32;37000;-80
2022/10/18 14:14:12;;;;;;;;;;;;;;;28.84;18.61;100626.22;7683832;32;39307;-79
2022/10/18 14:18:31;;;;;;;8.05;3.70;;;;;;;28.52;18.13;100627.63;7684544;32;40212;-80
2022/10/18 14:23:02;;;;;;;7.85;3.60;;;;;;;29.20;18.50;100621.16;7670564;32;37817;-79
2022/10/18 14:27:21;;;;;;;16.85;3.60;;;;;;;29.33;17.57;100623.75;7683874;32;37009;-79
2022/10/18 14:31:37;;;;;;;8.68;3.15;;;;;;;29.17;18.30;100605.06;7683840;32;38598;-79
2022/10/18 14:36:08;;;;;;;6.47;3.17;;;;;;;29.47;18.84;100604.28;7669538;32;39921;-75
2022/10/18 14:40:37;;;;;;;7.62;3.25;;;;;;;30.06;17.69;100600.97;7683881;32;38740;-79
2022/10/18 14:44:54;;;;;;;7.45;3.20;;;;;;;31.75;15.89;100586.16;7683161;32;36748;-79
2022/10/18 14:49:12;;;;;;;7.22;3.60;;;;;;;34.15;13.93;100580.53;7683899;32;39231;-75
2022/10/18 14:53:35;;;;;;;9.80;3.58;;;;;;;34.84;13.31;100575.16;7683212;32;40839;-78
2022/10/18 14:57:51;;;;;;;9.20;3.65;;;;;;;36.87;11.26;100566.28;7669889;32;37927;-78
2022/10/18 15:02:29;;;;;;;11.30;3.83;;;;;;;36.91;11.47;100558.50;7684375;32;37385;-79
2022/10/18 15:06:47;;;;;;;11.23;3.35;;;;;;;37.86;10.78;100547.59;7672883;32;40123;-75
2022/10/18 15:11:04;;;;;;;11.82;3.50;;;;;;;37.31;10.67;100553.66;7686365;32;39985;-79
2022/10/18 15:15:29;;;;;;;5.72;3.20;;;;;;;36.89;11.39;100556.09;7672955;32;38079;-78
2022/10/18 15:19:59;;;;;;;9.18;3.40;;;;;;;33.88;14.22;100564.16;7686519;32;37997;-79
2022/10/18 15:24:26;;;;;;;7.22;3.45;;;;;;;30.95;17.63;100561.59;7686244;32;40077;-79
2022/10/18 15:28:52;;;;;;;9.47;3.50;;;;;;;29.85;18.54;100573.44;7672223;32;40817;-78
2022/10/18 15:33:18;;;;;;;11.43;3.70;;;;;;;26.70;22.09;100578.59;7686027;32;37956;-82
2022/10/18 15:37:43;;;;;;;8.65;3.72;;;;;;;26.58;23.19;100577.50;7673164;32;37869;-80
2022/10/18 15:42:02;;;;;;;8.35;3.85;;;;;;;25.83;24.64;100581.09;7686036;32;39076;-81
2022/10/18 15:46:32;;;;;;;13.70;4.12;;;;;;;24.44;27.33;100578.34;7685339;32;40075;-82
2022/10/18 15:50:56;;;;;;;10.43;4.12;;;;;;;23.49;29.27;100570.66;7685579;32;37927;-81
2022/10/18 15:55:31;;;;;;;13.07;4.00;;;;;;;22.95;30.15;100571.31;7672892;32;37203;-83
2022/10/18 15:59:55;;;;;;;10.02;4.30;;;;;;;22.99;28.84;100580.63;7685314;32;40007;-82
2022/10/18 16:04:31;;;;;;;19.90;4.95;;;;;;;22.10;31.33;100586.84;7672174;32;40709;-80
2022/10/18 16:08:49;;;;;;;9.50;4.80;;;;;;;21.97;30.93;100590.63;7671760;32;37917;-82
2022/10/18 16:13:05;;;;;;;10.15;4.20;;;;;;;21.10;33.53;100587.84;7685171;32;36961;-85
2022/10/18 16:17:21;;;;;;;18.25;4.80;;;;;;;20.74;34.19;100586.94;7685470;32;39499;-84
2022/10/18 16:21:38;;;;;;;14.40;4.35;;;;;;;20.24;35.34;100579.69;7685399;32;41343;-83
2022/10/18 16:25:54;;;;;;;14.68;4.65;;;;;;;19.75;36.68;100581.50;7685349;32;37946;-83
2022/10/18 16:30:13;;;;;;;9.45;3.85;;;;;;;19.73;36.78;100589.28;7685085;32;37542;-84
2022/10/18 16:34:30;;;;;;;9.98;4.32;;;;;;;19.61;37.50;100583.47;7685279;32;39038;-84
2022/10/18 16:38:47;;;;;;;8.45;4.12;;;;;;;19.48;37.41;100597.03;7685095;32;42126;-84
2022/10/18 16:43:03;;;;;;;12.63;5.32;;;;;;;19.08;37.88;100599.59;7685057;32;37656;-84
2022/10/18 16:47:19;;;;;;;11.88;5.62;;;;;;;18.18;40.24;100612.91;7685215;32;37034;-84
2022/10/18 16:51:35;;;;;;;23.20;5.75;;;;;;;18.30;40.12;100613.25;7684838;32;39821;-84
2022/10/18 16:55:55;;;;;;;13.40;5.30;;;;;;;17.87;41.82;100612.59;7685062;32;39733;-85
2022/10/18 17:00:19;;;;;;;7.65;4.20;;;;;;;18.01;41.34;100605.22;7671307;32;37823;-85
2022/10/18 17:04:35;;;;;;;8.20;4.20;;;;;;;17.76;41.14;100598.12;7684796;32;37838;-83
2022/10/18 17:08:52;;;;;;;8.50;4.82;;;;;;;17.45;41.80;100593.94;7684656;32;40541;-84
2022/10/18 17:13:08;;;;;;;11.05;4.22;;;;;;;17.42;41.76;100594.50;7684646;32;39895;-84
2022/10/18 17:17:24;;;;;;;12.52;3.85;;;;;;;17.67;40.29;100597.19;7684934;32;38084;-84
2022/10/18 17:21:39;;;;;;;7.95;4.07;;;;;;;17.40;41.81;100590.41;7670768;32;37153;-84
2022/10/18 17:25:56;;;;;;;7.37;3.87;;;;;;;17.50;41.06;100601.28;7683767;32;39275;-86
2022/10/18 17:30:29;;;;;;;8.88;4.85;;;;;;;17.19;42.39;100601.72;7673114;32;39615;-86
2022/10/18 17:34:45;;;;;;;8.95;4.53;;;;;;;17.20;42.79;100600.59;7684330;32;38603;-86
2022/10/18 17:39:02;;;;;;;13.23;4.95;;;;;;;17.24;42.17;100609.91;7684479;32;36843;-86
2022/10/18 17:43:18;;;;;;;8.63;4.78;;;;;;;16.90;42.71;100607.31;7684886;32;39379;-84
2022/10/18 17:47:34;;;;;;;8.93;4.78;;;;;;;16.69;43.19;100609.47;7683445;32;39697;-87
2022/10/18 17:51:50;;;;;;;8.73;4.95;;;;;;;16.51;43.65;100613.81;7690484;32;38968;-86
2022/10/18 17:56:07;;;;;;;9.07;4.22;;;;;;;16.62;43.49;100603.50;7710139;32;37306;-87
2022/10/18 18:00:23;;;;;;;9.88;5.20;;;;;;;16.43;43.47;100608.94;7697057;32;39080;-87
2022/10/18 18:04:39;;;;;;;8.95;4.87;;;;;;;16.49;42.72;100622.34;7711008;32;39706;-88
2022/10/18 18:09:00;;;;;;;13.07;5.45;;;;;;;16.18;44.37;100604.50;7702768;32;240382;-87
2022/10/18 18:13:16;;;;;;;10.55;4.57;;;;;;;16.00;44.89;100601.34;7710815;32;37091;-88
2022/10/18 18:17:34;;;;;;;10.25;4.95;;;;;;;16.34;43.75;100592.25;7701448;32;39209;-87
2022/10/18 18:22:10;;;;;;;14.43;5.37;;;;;;;16.25;43.99;100596.75;7704927;32;40262;-87
2022/10/18 18:26:26;;;;;;;14.13;5.72;;;;;;;15.89;45.04;100580.56;7710817;32;38799;-86
2022/10/18 18:30:42;;;;;;;13.38;5.90;;;;;;;15.86;44.76;100576.44;7710737;32;37143;-88
2022/10/18 18:34:58;;;;;;;14.45;7.15;;;;;;;16.06;44.08;100578.22;7686035;32;39386;-87
2022/10/18 18:39:25;;;;;;;10.32;5.28;;;;;;;15.68;45.04;100572.44;7703450;32;40877;-88
2022/10/18 18:43:44;;;;;;;11.32;5.80;;;;;;;15.50;45.80;100584.12;7688411;32;38659;-89
2022/10/18 18:48:00;;;;;;;17.25;5.93;;;;;;;15.09;47.19;100578.88;7707301;32;37208;-80
2022/10/18 18:52:16;;;;;;;15.15;5.47;;;;;;;15.13;46.63;100568.97;7710032;32;40037;-82
2022/10/18 18:56:33;;;;;;;12.40;4.97;;;;;;;15.35;45.99;100561.16;7710015;32;40805;-82
2022/10/18 19:00:49;;;;;;;13.57;5.40;;;;;;;15.52;44.90;100563.50;7710055;32;37857;-81
2022/10/18 19:05:05;;;;;;;7.87;4.65;;;;;;;15.33;45.95;100552.37;7710036;32;37966;-80
2022/10/18 19:09:21;;;;;;;10.13;5.40;;;;;;;15.28;45.25;100562.56;7709082;32;39258;-81
2022/10/18 19:13:37;;;;;;;10.07;4.93;;;;;;;15.18;46.35;100550.53;7706226;32;39686;-80
2022/10/18 19:17:54;;;;;;;13.60;5.20;;;;;;;15.46;45.64;100564.62;7706109;32;38843;-80
2022/10/18 19:22:10;;;;;;;9.98;5.78;;;;;;;15.36;45.74;100565.53;7707058;32;37344;-84
2022/10/18 19:26:44;;;;;;;8.60;4.95;;;;;;;14.88;47.45;100568.00;7708365;32;39272;-82
2022/10/18 19:31:00;;;;;;;10.27;5.00;;;;;;;15.06;46.52;100568.47;7709287;32;39922;-78
2022/10/18 19:35:16;;;;;;;11.65;5.05;;;;;;;14.93;47.64;100564.41;7709190;32;38040;-80
2022/10/18 19:39:34;;;;;;;10.25;5.57;;;;;;;14.61;46.99;100555.50;7708582;32;36830;-80
2022/10/18 19:43:51;;;;;;;9.63;5.20;;;;;;;14.73;46.64;100543.34;7693840;32;39321;-80
2022/10/18 19:48:07;;;;;;;17.02;5.55;;;;;;;14.82;46.00;100541.69;7710252;32;39982;-80
2022/10/18 19:52:28;;;;;;;10.18;5.30;;;;;;;14.74;46.63;100531.28;7712153;32;37977;-80
2022/10/18 19:56:44;;;;;;;16.35;5.43;;;;;;;14.16;48.93;100535.28;7711409;32;37967;-80
2022/10/18 20:01:01;;;;;;;11.60;5.55;;;;;;;14.40;48.01;100540.16;7712090;32;39495;-80
2022/10/18 20:05:17;;;;;;;9.10;5.12;;;;;;;14.52;47.87;100548.91;7695055;32;39647;-79